createdAt,value
2023-05-16T00:00:16.458Z,14.48
2023-05-16T00:02:44.358Z,14.73
2023-05-16T00:05:14.655Z,14.98
2023-05-16T00:07:43.382Z,14.88
2023-05-16T00:10:11.632Z,14.83
2023-05-16T00:12:40.137Z,14.88
2023-05-16T00:15:10.260Z,14.69
2023-05-16T00:17:38.006Z,14.75
2023-05-16T00:20:07.877Z,14.72
2023-05-16T00:22:35.951Z,14.71
2023-05-16T00:25:04.271Z,14.84
2023-05-16T00:27:34.017Z,14.56
2023-05-16T00:30:02.780Z,14.44
2023-05-16T00:32:30.690Z,14.22
2023-05-16T00:34:58.686Z,14.26
2023-05-16T00:37:26.474Z,13.51
2023-05-16T00:39:55.112Z,14.02
2023-05-16T00:42:22.851Z,14.27
2023-05-16T00:44:50.589Z,14.51
2023-05-16T00:47:18.355Z,14.36
2023-05-16T00:49:46.032Z,14.44
2023-05-16T00:52:13.778Z,14.39
2023-05-16T00:54:41.515Z,14.44
2023-05-16T00:57:09.765Z,14.37
2023-05-16T00:59:37.495Z,14.47
2023-05-16T01:02:05.485Z,14.31
2023-05-16T01:04:33.320Z,14.26
2023-05-16T01:07:02.071Z,14.43
2023-05-16T01:09:29.767Z,14.40
2023-05-16T01:12:00.639Z,14.53
2023-05-16T01:14:50.796Z,14.43
2023-05-16T01:17:30.645Z,14.30
2023-05-16T01:20:19.540Z,13.70
2023-05-16T01:22:51.534Z,14.00
2023-05-16T01:25:36.413Z,13.96
2023-05-16T01:28:04.151Z,14.10
2023-05-16T01:30:38.528Z,13.74
2023-05-16T01:33:06.380Z,14.25
2023-05-16T01:35:34.164Z,14.37
2023-05-16T01:38:09.550Z,14.28
2023-05-16T01:40:53.526Z,14.25
2023-05-16T01:43:29.580Z,14.32
2023-05-16T01:46:02.478Z,14.29
2023-05-16T01:48:38.089Z,14.08
2023-05-16T01:51:05.995Z,14.51
2023-05-16T01:53:36.984Z,14.20
2023-05-16T01:56:04.753Z,14.27
2023-05-16T01:58:33.435Z,14.18
2023-05-16T02:01:04.974Z,13.43
2023-05-16T02:03:33.119Z,13.18
2023-05-16T02:06:01.081Z,13.76
2023-05-16T02:08:29.064Z,13.73
2023-05-16T02:10:56.790Z,13.79
2023-05-16T02:13:24.890Z,13.45
2023-05-16T02:15:53.097Z,13.75
2023-05-16T02:18:21.024Z,13.86
2023-05-16T02:20:48.732Z,13.89
2023-05-16T02:23:16.940Z,14.32
2023-05-16T02:25:44.658Z,14.06
2023-05-16T02:28:12.395Z,13.92
2023-05-16T02:30:40.272Z,14.03
2023-05-16T02:33:08.204Z,13.72
2023-05-16T02:35:36.009Z,13.73
2023-05-16T02:38:03.727Z,13.59
2023-05-16T02:40:31.656Z,13.56
2023-05-16T02:42:59.476Z,13.95
2023-05-16T02:45:27.485Z,14.07
2023-05-16T02:47:55.657Z,13.97
2023-05-16T02:50:23.396Z,14.23
2023-05-16T02:52:51.371Z,14.03
2023-05-16T02:55:22.075Z,14.43
2023-05-16T02:57:51.120Z,14.30
2023-05-16T03:00:19.779Z,14.31
2023-05-16T03:02:48.966Z,14.36
2023-05-16T03:05:17.111Z,14.31
2023-05-16T03:07:44.873Z,14.35
2023-05-16T03:10:12.547Z,14.36
2023-05-16T03:12:40.269Z,14.32
2023-05-16T03:15:09.277Z,14.25
2023-05-16T03:17:37.571Z,14.41
2023-05-16T03:20:09.456Z,14.34
2023-05-16T03:22:37.267Z,14.32
2023-05-16T03:25:05.346Z,14.27
2023-05-16T03:27:33.331Z,14.24
2023-05-16T03:30:00.988Z,14.21
2023-05-16T03:32:28.777Z,14.33
2023-05-16T03:34:56.523Z,14.39
2023-05-16T03:37:24.305Z,14.26
2023-05-16T03:39:52.029Z,14.30
2023-05-16T03:42:19.983Z,14.33
2023-05-16T03:44:47.675Z,14.25
2023-05-16T03:47:16.090Z,14.15
2023-05-16T03:49:43.788Z,14.27
2023-05-16T03:52:11.453Z,14.32
2023-05-16T03:54:39.153Z,14.46
2023-05-16T03:57:07.348Z,14.34
2023-05-16T03:59:35.220Z,14.11
2023-05-16T04:02:02.978Z,14.05
2023-05-16T04:04:30.922Z,14.25
2023-05-16T04:06:58.599Z,14.27
2023-05-16T04:09:26.494Z,14.52
2023-05-16T04:11:56.201Z,14.32
2023-05-16T04:14:24.362Z,14.33
2023-05-16T04:16:52.274Z,13.72
2023-05-16T04:19:20.447Z,14.02
2023-05-16T04:21:48.265Z,14.27
2023-05-16T04:24:15.986Z,14.28
2023-05-16T04:26:43.637Z,14.44
2023-05-16T04:29:11.762Z,14.48
2023-05-16T04:31:39.648Z,14.40
2023-05-16T04:34:07.486Z,14.54
2023-05-16T04:36:35.643Z,14.52
2023-05-16T04:39:03.428Z,14.55
2023-05-16T04:41:31.313Z,14.57
2023-05-16T04:43:59.130Z,14.64
2023-05-16T04:46:26.887Z,14.63
2023-05-16T04:48:54.679Z,14.55
2023-05-16T04:51:22.337Z,14.77
2023-05-16T04:53:50.083Z,14.60
2023-05-16T04:56:17.883Z,14.67
2023-05-16T04:58:46.127Z,14.75
2023-05-16T05:01:13.858Z,14.53
2023-05-16T05:03:41.663Z,14.73
2023-05-16T05:06:09.333Z,14.86
2023-05-16T05:08:37.145Z,14.66
2023-05-16T05:11:04.991Z,14.74
2023-05-16T05:13:32.748Z,14.80
2023-05-16T05:16:02.113Z,14.98
2023-05-16T05:18:30.026Z,15.02
2023-05-16T05:20:58.175Z,14.77
2023-05-16T05:23:26.184Z,15.00
2023-05-16T05:25:54.505Z,14.95
2023-05-16T05:28:22.304Z,14.76
2023-05-16T05:30:50.009Z,15.05
2023-05-16T05:33:20.463Z,15.14
2023-05-16T05:35:48.165Z,15.17
2023-05-16T05:38:16.255Z,14.91
2023-05-16T05:40:43.948Z,15.25
2023-05-16T05:43:12.051Z,14.95
2023-05-16T05:45:39.736Z,15.25
2023-05-16T05:48:07.659Z,15.36
2023-05-16T05:50:35.505Z,15.40
2023-05-16T05:53:03.339Z,15.47
2023-05-16T05:55:30.986Z,15.34
2023-05-16T05:57:58.795Z,15.55
2023-05-16T06:00:26.533Z,15.62
2023-05-16T06:02:54.386Z,15.74
2023-05-16T06:05:22.292Z,15.91
2023-05-16T06:07:50.083Z,16.00
2023-05-16T06:10:17.789Z,16.09
2023-05-16T06:12:45.588Z,16.01
2023-05-16T06:15:13.352Z,16.15
2023-05-16T06:17:42.082Z,16.29
2023-05-16T06:20:10.107Z,16.13
2023-05-16T06:22:37.792Z,15.78
2023-05-16T06:25:06.075Z,15.73
2023-05-16T06:27:33.848Z,16.37
2023-05-16T06:30:01.614Z,15.95
2023-05-16T06:32:29.541Z,16.27
2023-05-16T06:34:57.398Z,16.39
2023-05-16T06:37:26.158Z,16.24
2023-05-16T06:39:53.962Z,16.17
2023-05-16T06:42:21.692Z,16.15
2023-05-16T06:44:51.259Z,16.14
2023-05-16T06:47:19.010Z,16.37
2023-05-16T06:49:46.786Z,16.40
2023-05-16T06:52:14.560Z,16.55
2023-05-16T06:54:42.582Z,16.54
2023-05-16T06:57:10.351Z,16.79
2023-05-16T06:59:38.310Z,16.92
2023-05-16T07:02:06.558Z,17.08
2023-05-16T07:04:36.652Z,17.16
2023-05-16T07:07:04.979Z,16.84
2023-05-16T07:09:32.754Z,16.97
2023-05-16T07:12:00.543Z,17.07
2023-05-16T07:14:28.460Z,16.83
2023-05-16T07:16:56.229Z,17.21
2023-05-16T07:19:24.180Z,17.50
2023-05-16T07:21:52.030Z,17.55
2023-05-16T07:24:19.773Z,17.37
2023-05-16T07:26:47.464Z,17.42
2023-05-16T07:29:15.750Z,17.36
2023-05-16T07:31:43.607Z,17.47
2023-05-16T07:34:12.133Z,17.54
2023-05-16T07:36:39.870Z,17.30
2023-05-16T07:39:07.675Z,17.45
2023-05-16T07:41:35.518Z,17.53
2023-05-16T07:44:03.452Z,17.45
2023-05-16T07:46:31.308Z,17.44
2023-05-16T07:48:59.142Z,17.51
2023-05-16T07:51:26.868Z,17.42
2023-05-16T07:53:54.636Z,17.37
2023-05-16T07:56:23.666Z,17.49
2023-05-16T07:58:51.599Z,17.47
2023-05-16T08:01:19.471Z,17.50
2023-05-16T08:03:47.240Z,17.32
2023-05-16T08:06:15.311Z,17.38
2023-05-16T08:08:43.415Z,17.26
2023-05-16T08:11:11.393Z,17.44
2023-05-16T08:13:39.181Z,17.40
2023-05-16T08:16:07.540Z,17.43
2023-05-16T08:18:35.628Z,17.41
2023-05-16T08:21:03.709Z,17.30
2023-05-16T08:23:31.484Z,17.39
2023-05-16T08:25:59.466Z,17.55
2023-05-16T08:28:27.243Z,17.45
2023-05-16T08:30:55.047Z,17.82
2023-05-16T08:33:22.908Z,17.72
2023-05-16T08:35:52.829Z,17.92
2023-05-16T08:38:20.947Z,17.38
2023-05-16T08:40:48.774Z,17.48
2023-05-16T08:43:16.819Z,17.64
2023-05-16T08:45:44.597Z,17.66
2023-05-16T08:48:12.421Z,17.58
2023-05-16T08:50:40.291Z,17.60
2023-05-16T08:53:08.449Z,17.58
2023-05-16T08:55:36.444Z,17.74
2023-05-16T08:58:04.308Z,17.72
2023-05-16T09:00:32.098Z,17.87
2023-05-16T09:02:59.921Z,18.03
2023-05-16T09:05:29.954Z,17.95
2023-05-16T09:07:57.949Z,18.22
2023-05-16T09:10:25.733Z,18.18
2023-05-16T09:12:53.595Z,17.97
2023-05-16T09:15:23.977Z,18.18
2023-05-16T09:17:52.099Z,18.17
2023-05-16T09:20:20.364Z,18.25
2023-05-16T09:22:55.953Z,18.09
2023-05-16T09:27:58.381Z,17.96
2023-05-16T09:30:30.666Z,17.95
2023-05-16T09:32:59.206Z,18.09
2023-05-16T09:37:57.938Z,18.37
2023-05-16T09:40:25.774Z,18.43
2023-05-16T09:43:06.877Z,18.49
2023-05-16T09:45:35.605Z,18.41
2023-05-16T09:48:13.072Z,18.47
2023-05-16T09:50:42.869Z,18.26
2023-05-16T09:53:10.712Z,18.41
2023-05-16T09:55:38.477Z,18.45
2023-05-16T09:58:06.595Z,18.60
2023-05-16T10:00:34.441Z,18.69
2023-05-16T10:03:05.169Z,18.60
2023-05-16T10:05:33.492Z,18.55
2023-05-16T10:08:02.988Z,18.64
2023-05-16T10:10:30.718Z,18.42
2023-05-16T10:12:59.233Z,18.33
2023-05-16T10:15:27.351Z,18.71
2023-05-16T10:17:56.691Z,18.84
2023-05-16T10:20:26.054Z,18.87
2023-05-16T10:22:55.084Z,19.10
2023-05-16T10:25:22.714Z,19.12
2023-05-16T10:27:50.945Z,18.95
2023-05-16T10:30:18.727Z,19.14
2023-05-16T10:32:46.744Z,19.18
2023-05-16T10:35:14.505Z,19.31
2023-05-16T10:37:42.297Z,19.32
2023-05-16T10:40:10.396Z,19.40
2023-05-16T10:42:38.309Z,19.44
2023-05-16T10:45:15.855Z,19.44
2023-05-16T10:48:04.831Z,19.18
2023-05-16T10:50:35.991Z,19.38
2023-05-16T10:53:22.205Z,19.49
2023-05-16T10:55:59.035Z,19.45
2023-05-16T10:58:38.735Z,19.46
2023-05-16T11:01:29.560Z,19.26
2023-05-16T11:03:57.468Z,19.12
2023-05-16T11:06:43.448Z,19.29
2023-05-16T11:09:13.910Z,19.50
2023-05-16T11:11:49.662Z,19.39
2023-05-16T11:14:33.377Z,19.67
2023-05-16T11:17:11.189Z,19.81
2023-05-16T11:19:51.959Z,20.08
2023-05-16T11:22:19.637Z,20.20
2023-05-16T11:24:54.603Z,19.91
2023-05-16T11:27:25.985Z,19.93
2023-05-16T11:29:54.995Z,19.55
2023-05-16T11:32:23.232Z,18.95
2023-05-16T11:34:52.009Z,19.08
2023-05-16T11:37:20.268Z,18.88
2023-05-16T11:39:48.172Z,19.62
2023-05-16T11:42:16.199Z,19.79
2023-05-16T11:44:45.023Z,19.76
2023-05-16T11:47:12.915Z,19.93
2023-05-16T11:49:41.588Z,20.38
2023-05-16T11:52:09.767Z,20.43
2023-05-16T11:54:37.845Z,20.54
2023-05-16T11:57:05.832Z,20.08
2023-05-16T11:59:33.718Z,20.45
2023-05-16T12:02:03.828Z,20.63
2023-05-16T12:04:31.838Z,20.76
2023-05-16T12:07:01.268Z,20.32
2023-05-16T12:09:29.112Z,20.50
2023-05-16T12:11:57.050Z,20.50
2023-05-16T12:14:25.858Z,20.68
2023-05-16T12:16:53.721Z,20.77
2023-05-16T12:19:21.845Z,20.80
2023-05-16T12:21:52.915Z,20.61
2023-05-16T12:24:21.823Z,20.51
2023-05-16T12:26:49.580Z,20.55
2023-05-16T12:29:17.441Z,20.64
2023-05-16T12:31:45.356Z,20.81
2023-05-16T12:34:21.400Z,20.80
2023-05-16T12:36:53.571Z,20.38
2023-05-16T12:39:21.599Z,20.57
2023-05-16T12:41:49.389Z,20.46
2023-05-16T12:44:19.475Z,20.75
2023-05-16T12:46:49.917Z,20.61
2023-05-16T12:49:24.125Z,20.94
2023-05-16T12:51:52.718Z,20.86
2023-05-16T12:54:22.805Z,20.57
2023-05-16T12:56:50.715Z,21.11
2023-05-16T12:59:20.131Z,21.21
2023-05-16T13:01:47.964Z,21.17
2023-05-16T13:04:19.238Z,21.36
2023-05-16T13:06:59.333Z,21.26
2023-05-16T13:09:32.107Z,21.49
2023-05-16T13:12:00.945Z,21.06
2023-05-16T13:14:28.780Z,20.85
2023-05-16T13:16:56.550Z,21.30
2023-05-16T13:19:24.667Z,21.18
2023-05-16T13:21:52.647Z,21.34
2023-05-16T13:24:20.605Z,21.20
2023-05-16T13:26:48.356Z,21.35
2023-05-16T13:29:16.275Z,21.27
2023-05-16T13:31:47.656Z,20.15
2023-05-16T13:34:15.637Z,20.87
2023-05-16T13:36:53.792Z,21.30
2023-05-16T13:39:22.690Z,21.23
2023-05-16T13:41:50.816Z,21.03
2023-05-16T13:44:18.631Z,21.69
2023-05-16T13:46:46.863Z,21.47
2023-05-16T13:49:14.593Z,21.67
2023-05-16T13:51:42.421Z,21.81
2023-05-16T13:54:10.195Z,21.36
2023-05-16T13:56:38.071Z,21.69
2023-05-16T13:59:07.292Z,21.78
2023-05-16T14:01:36.654Z,21.89
2023-05-16T14:04:04.750Z,21.62
2023-05-16T14:06:33.478Z,21.89
2023-05-16T14:09:01.427Z,21.69
2023-05-16T14:11:29.707Z,21.64
2023-05-16T14:13:57.872Z,21.45
2023-05-16T14:16:25.994Z,21.76
2023-05-16T14:18:54.024Z,21.89
2023-05-16T14:21:21.979Z,21.72
2023-05-16T14:23:49.937Z,21.97
2023-05-16T14:26:22.526Z,21.53
2023-05-16T14:28:50.856Z,21.70
2023-05-16T14:31:18.968Z,21.56
2023-05-16T14:33:46.893Z,21.91
2023-05-16T14:36:14.657Z,21.59
2023-05-16T14:38:42.398Z,21.55
2023-05-16T14:41:10.205Z,21.64
2023-05-16T14:43:38.574Z,21.60
2023-05-16T14:46:06.394Z,21.35
2023-05-16T14:48:34.265Z,21.43
2023-05-16T14:51:02.134Z,21.45
2023-05-16T14:53:29.932Z,21.50
2023-05-16T14:55:58.014Z,21.44
2023-05-16T14:58:25.763Z,21.21
2023-05-16T15:00:56.537Z,21.07
2023-05-16T15:03:24.389Z,20.98
2023-05-16T15:05:52.765Z,21.13
2023-05-16T15:08:20.951Z,20.90
2023-05-16T15:10:48.794Z,21.02
2023-05-16T15:13:16.570Z,20.80
2023-05-16T15:15:44.392Z,20.56
2023-05-16T15:18:12.151Z,20.55
2023-05-16T15:20:39.941Z,20.19
2023-05-16T15:23:07.669Z,19.66
2023-05-16T15:25:35.503Z,20.05
2023-05-16T15:28:03.288Z,19.27
2023-05-16T15:30:31.111Z,19.72
2023-05-16T15:32:58.926Z,19.22
2023-05-16T15:35:27.310Z,19.27
2023-05-16T15:37:56.702Z,19.70
2023-05-16T15:40:27.211Z,19.69
2023-05-16T15:42:55.403Z,19.58
2023-05-16T15:45:23.189Z,19.78
2023-05-16T15:47:51.040Z,19.76
2023-05-16T15:50:18.852Z,19.82
2023-05-16T15:52:46.629Z,19.62
2023-05-16T15:55:15.250Z,19.59
2023-05-16T15:57:44.138Z,19.63
2023-05-16T16:00:12.518Z,19.17
2023-05-16T16:02:41.468Z,19.17
2023-05-16T16:05:09.384Z,19.38
2023-05-16T16:07:37.191Z,19.10
2023-05-16T16:10:05.235Z,19.24
2023-05-16T16:12:33.092Z,19.30
2023-05-16T16:15:02.406Z,19.29
2023-05-16T16:17:30.489Z,19.36
2023-05-16T16:19:58.262Z,19.43
2023-05-16T16:22:26.096Z,19.47
2023-05-16T16:24:53.829Z,19.31
2023-05-16T16:27:21.692Z,19.45
2023-05-16T16:29:49.489Z,19.18
2023-05-16T16:32:17.403Z,19.24
2023-05-16T16:34:45.148Z,19.28
2023-05-16T16:37:12.952Z,19.43
2023-05-16T16:39:40.800Z,19.35
2023-05-16T16:42:08.625Z,19.47
2023-05-16T16:44:36.409Z,19.40
2023-05-16T16:47:04.390Z,19.37
2023-05-16T16:49:32.238Z,19.34
2023-05-16T16:52:00.601Z,19.26
2023-05-16T16:54:28.405Z,19.21
2023-05-16T16:56:56.659Z,19.14
2023-05-16T16:59:24.422Z,19.18
2023-05-16T17:01:52.374Z,19.12
2023-05-16T17:04:20.316Z,19.02
2023-05-16T17:06:48.749Z,18.99
2023-05-16T17:09:17.890Z,18.64
2023-05-16T17:11:46.848Z,18.71
2023-05-16T17:14:15.174Z,18.79
2023-05-16T17:16:43.168Z,18.73
2023-05-16T17:19:11.267Z,18.78
2023-05-16T17:21:40.673Z,18.77
2023-05-16T17:24:08.707Z,18.75
2023-05-16T17:26:36.668Z,18.73
2023-05-16T17:29:05.167Z,18.65
2023-05-16T17:31:33.245Z,18.74
2023-05-16T17:34:01.035Z,18.77
2023-05-16T17:36:29.000Z,18.58
2023-05-16T17:38:56.793Z,18.57
2023-05-16T17:41:24.617Z,18.57
2023-05-16T17:43:52.411Z,18.51
2023-05-16T17:46:20.375Z,18.37
2023-05-16T17:48:48.390Z,18.43
2023-05-16T17:51:16.335Z,18.36
2023-05-16T17:53:44.483Z,18.36
2023-05-16T17:56:12.260Z,18.38
2023-05-16T17:58:40.184Z,18.09
2023-05-16T18:01:09.351Z,17.96
2023-05-16T18:03:37.298Z,17.52
2023-05-16T18:06:05.662Z,17.24
2023-05-16T18:08:33.572Z,17.02
2023-05-16T18:11:01.316Z,16.47
2023-05-16T18:13:29.347Z,16.61
2023-05-16T18:15:57.141Z,16.93
2023-05-16T18:18:25.012Z,16.72
2023-05-16T18:20:52.836Z,16.42
2023-05-16T18:23:20.711Z,16.75
2023-05-16T18:25:48.862Z,16.92
2023-05-16T18:28:16.789Z,16.77
2023-05-16T18:30:44.528Z,16.85
2023-05-16T18:33:12.512Z,17.17
2023-05-16T18:35:40.279Z,17.29
2023-05-16T18:38:12.363Z,17.39
2023-05-16T18:40:50.387Z,17.27
2023-05-16T18:43:18.201Z,17.46
2023-05-16T18:45:45.968Z,17.62
2023-05-16T18:48:13.969Z,17.44
2023-05-16T18:50:41.867Z,17.33
2023-05-16T18:53:09.704Z,16.06
2023-05-16T18:55:37.469Z,17.06
2023-05-16T18:58:05.527Z,17.21
2023-05-16T19:00:33.465Z,17.19
2023-05-16T19:03:01.399Z,17.09
2023-05-16T19:05:29.507Z,17.22
2023-05-16T19:07:57.466Z,17.16
2023-05-16T19:10:25.327Z,17.31
2023-05-16T19:12:53.342Z,17.15
2023-05-16T19:15:21.075Z,17.20
2023-05-16T19:17:49.222Z,16.94
2023-05-16T19:20:17.053Z,17.01
2023-05-16T19:22:44.900Z,16.60
2023-05-16T19:25:13.123Z,16.75
2023-05-16T19:27:40.956Z,17.14
2023-05-16T19:30:09.075Z,16.36
2023-05-16T19:32:36.993Z,16.77
2023-05-16T19:35:06.507Z,16.49
2023-05-16T19:37:34.345Z,16.11
2023-05-16T19:40:03.268Z,16.44
2023-05-16T19:42:31.120Z,16.83
2023-05-16T19:44:58.905Z,16.83
2023-05-16T19:47:26.716Z,16.76
2023-05-16T19:49:54.608Z,16.33
2023-05-16T19:52:22.403Z,16.33
2023-05-16T19:54:50.257Z,16.68
2023-05-16T19:57:18.164Z,16.91
2023-05-16T19:59:45.990Z,16.90
2023-05-16T20:02:14.966Z,16.78
2023-05-16T20:04:43.033Z,16.63
2023-05-16T20:07:10.790Z,16.48
2023-05-16T20:09:38.635Z,16.77
2023-05-16T20:12:06.877Z,16.26
2023-05-16T20:14:34.653Z,16.50
2023-05-16T20:17:02.388Z,16.50
2023-05-16T20:19:30.481Z,16.64
2023-05-16T20:21:58.379Z,16.66
2023-05-16T20:24:26.141Z,16.58
2023-05-16T20:26:54.434Z,16.85
2023-05-16T20:29:22.282Z,16.74
2023-05-16T20:31:50.026Z,16.21
2023-05-16T20:34:17.821Z,16.32
2023-05-16T20:36:45.759Z,16.51
2023-05-16T20:39:13.518Z,15.93
2023-05-16T20:41:41.320Z,15.99
2023-05-16T20:44:09.189Z,15.86
2023-05-16T20:46:37.039Z,15.56
2023-05-16T20:49:04.956Z,15.89
2023-05-16T20:51:32.715Z,16.10
2023-05-16T20:54:00.586Z,16.01
2023-05-16T20:56:28.345Z,16.02
2023-05-16T20:58:56.192Z,16.04
2023-05-16T21:01:24.061Z,15.72
2023-05-16T21:03:51.896Z,16.21
2023-05-16T21:06:19.667Z,16.21
2023-05-16T21:08:47.413Z,15.87
2023-05-16T21:11:15.128Z,16.12
2023-05-16T21:13:42.935Z,15.95
2023-05-16T21:16:12.577Z,15.69
2023-05-16T21:18:40.543Z,15.37
2023-05-16T21:21:08.451Z,15.85
2023-05-16T21:23:36.141Z,14.61
2023-05-16T21:26:03.993Z,15.13
2023-05-16T21:28:36.828Z,14.84
2023-05-16T21:31:08.178Z,14.83
2023-05-16T21:33:35.991Z,14.35
2023-05-16T21:36:04.036Z,14.37
2023-05-16T21:38:31.780Z,14.55
2023-05-16T21:40:59.565Z,14.21
2023-05-16T21:43:27.339Z,14.09
2023-05-16T21:45:55.133Z,14.22
2023-05-16T21:48:22.900Z,14.19
2023-05-16T21:50:51.015Z,14.23
2023-05-16T21:53:19.122Z,14.35
2023-05-16T21:55:47.052Z,14.36
2023-05-16T21:58:14.860Z,14.97
2023-05-16T22:00:42.642Z,14.90
2023-05-16T22:03:10.879Z,15.22
2023-05-16T22:05:38.738Z,15.13
2023-05-16T22:08:08.062Z,14.90
2023-05-16T22:10:36.033Z,14.88
2023-05-16T22:13:03.966Z,14.72
2023-05-16T22:15:31.716Z,14.98
2023-05-16T22:17:59.555Z,15.18
2023-05-16T22:20:27.775Z,15.21
2023-05-16T22:22:55.588Z,15.63
2023-05-16T22:25:23.376Z,15.93
2023-05-16T22:27:51.056Z,15.48
2023-05-16T22:30:19.070Z,15.40
2023-05-16T22:32:47.019Z,14.81
2023-05-16T22:35:15.026Z,14.74
2023-05-16T22:37:42.835Z,15.00
2023-05-16T22:40:11.210Z,15.20
2023-05-16T22:42:38.947Z,15.42
2023-05-16T22:45:07.446Z,15.53
2023-05-16T22:47:35.205Z,16.02
2023-05-16T22:50:03.146Z,16.19
2023-05-16T22:52:31.022Z,16.43
2023-05-16T22:55:00.641Z,16.52
2023-05-16T22:57:28.349Z,16.37
2023-05-16T22:59:56.220Z,16.72
2023-05-16T23:02:23.987Z,16.60
2023-05-16T23:04:51.965Z,16.92
2023-05-16T23:07:19.737Z,16.93
2023-05-16T23:09:47.625Z,16.51
2023-05-16T23:12:15.883Z,16.63
2023-05-16T23:14:43.675Z,16.55
2023-05-16T23:17:11.394Z,16.62
2023-05-16T23:19:39.432Z,16.68
2023-05-16T23:22:07.286Z,16.13
2023-05-16T23:24:35.066Z,16.24
2023-05-16T23:27:02.838Z,16.30
2023-05-16T23:29:30.666Z,16.47
2023-05-16T23:31:58.466Z,16.49
2023-05-16T23:34:26.293Z,16.20
2023-05-16T23:36:54.068Z,16.50
2023-05-16T23:39:21.846Z,16.30
2023-05-16T23:41:49.539Z,16.01
2023-05-16T23:44:17.320Z,16.00
2023-05-16T23:46:45.099Z,16.26
2023-05-16T23:49:12.907Z,16.35
2023-05-16T23:51:56.081Z,16.21
2023-05-16T23:54:25.785Z,16.42
2023-05-16T23:56:53.570Z,16.54
2023-05-16T23:59:21.460Z,16.46
